Terminal Aerodrome Forecast
Issued by NWS

Home | Current Version | Previous Version | Text Only | Print | Product List | Glossary On
Versions: 1 2 3 4 5 6 7 8 9 10 11 12 13 14 15 16 17 18 19
000
FTUS46 KPQR 252323
TAFONP
TAF
KONP 252323Z 2600/2624 34017G25KT P6SM SKC
     FM260400 34011G18KT 3/4SM BR BKN004
     FM260700 30004KT 3/4SM BR OVC004
     FM261900 34013G18KT 4SM HZ OVC007=

USA.gov is the U.S. government's official web portal to all federal, state and local government web resources and services.